sensor_id;sensor_type;location;lat;lon;timestamp;P1;durP1;ratioP1;P2;durP2;ratioP2
11496;SDS011;5805;51.542;7.230;2023-06-26T00:01:52;6.75;;;4.72;;
11496;SDS011;5805;51.542;7.230;2023-06-26T00:04:17;6.85;;;4.45;;
11496;SDS011;5805;51.542;7.230;2023-06-26T00:06:44;5.20;;;4.70;;
11496;SDS011;5805;51.542;7.230;2023-06-26T00:09:10;5.00;;;4.50;;
11496;SDS011;5805;51.542;7.230;2023-06-26T00:11:36;5.03;;;4.63;;
11496;SDS011;5805;51.542;7.230;2023-06-26T00:14:01;5.32;;;4.82;;
11496;SDS011;5805;51.542;7.230;2023-06-26T00:16:27;4.78;;;4.32;;
11496;SDS011;5805;51.542;7.230;2023-06-26T00:18:53;5.50;;;4.93;;
11496;SDS011;5805;51.542;7.230;2023-06-26T00:21:19;7.95;;;4.93;;
11496;SDS011;5805;51.542;7.230;2023-06-26T00:23:46;7.90;;;5.13;;
11496;SDS011;5805;51.542;7.230;2023-06-26T00:26:12;8.48;;;4.60;;
11496;SDS011;5805;51.542;7.230;2023-06-26T00:28:37;5.47;;;4.72;;
11496;SDS011;5805;51.542;7.230;2023-06-26T00:31:03;5.13;;;4.63;;
11496;SDS011;5805;51.542;7.230;2023-06-26T00:33:29;6.07;;;4.78;;
11496;SDS011;5805;51.542;7.230;2023-06-26T00:35:55;4.53;;;4.13;;
11496;SDS011;5805;51.542;7.230;2023-06-26T00:38:20;5.32;;;4.80;;
11496;SDS011;5805;51.542;7.230;2023-06-26T00:40:47;5.25;;;4.47;;
11496;SDS011;5805;51.542;7.230;2023-06-26T00:43:13;5.20;;;4.32;;
11496;SDS011;5805;51.542;7.230;2023-06-26T00:45:39;8.07;;;4.40;;
11496;SDS011;5805;51.542;7.230;2023-06-26T00:48:04;6.43;;;4.68;;
11496;SDS011;5805;51.542;7.230;2023-06-26T00:50:31;4.75;;;4.35;;
11496;SDS011;5805;51.542;7.230;2023-06-26T00:52:56;5.00;;;4.50;;
11496;SDS011;5805;51.542;7.230;2023-06-26T00:55:22;5.30;;;4.80;;
11496;SDS011;5805;51.542;7.230;2023-06-26T00:57:49;4.78;;;4.38;;
11496;SDS011;5805;51.542;7.230;2023-06-26T01:00:15;5.97;;;4.78;;
11496;SDS011;5805;51.542;7.230;2023-06-26T01:02:41;5.45;;;4.40;;
11496;SDS011;5805;51.542;7.230;2023-06-26T01:05:07;4.75;;;4.35;;
11496;SDS011;5805;51.542;7.230;2023-06-26T01:07:33;4.80;;;4.40;;
11496;SDS011;5805;51.542;7.230;2023-06-26T01:09:59;5.13;;;4.15;;
11496;SDS011;5805;51.542;7.230;2023-06-26T01:12:25;4.63;;;4.22;;
11496;SDS011;5805;51.542;7.230;2023-06-26T01:14:53;5.18;;;4.68;;
11496;SDS011;5805;51.542;7.230;2023-06-26T01:17:18;4.80;;;4.30;;
11496;SDS011;5805;51.542;7.230;2023-06-26T01:19:45;4.72;;;4.32;;
11496;SDS011;5805;51.542;7.230;2023-06-26T01:22:14;5.25;;;4.72;;
11496;SDS011;5805;51.542;7.230;2023-06-26T01:24:45;5.47;;;4.70;;
11496;SDS011;5805;51.542;7.230;2023-06-26T01:27:22;5.00;;;4.55;;
11496;SDS011;5805;51.542;7.230;2023-06-26T01:29:50;5.72;;;4.63;;
11496;SDS011;5805;51.542;7.230;2023-06-26T01:32:17;6.07;;;4.03;;
11496;SDS011;5805;51.542;7.230;2023-06-26T01:34:44;5.65;;;4.50;;
11496;SDS011;5805;51.542;7.230;2023-06-26T01:37:10;6.10;;;4.38;;
11496;SDS011;5805;51.542;7.230;2023-06-26T01:39:36;4.93;;;4.43;;
11496;SDS011;5805;51.542;7.230;2023-06-26T01:42:02;5.35;;;4.75;;
11496;SDS011;5805;51.542;7.230;2023-06-26T01:44:29;5.55;;;4.50;;
11496;SDS011;5805;51.542;7.230;2023-06-26T01:46:59;6.05;;;4.25;;
11496;SDS011;5805;51.542;7.230;2023-06-26T01:49:28;6.10;;;4.65;;
11496;SDS011;5805;51.542;7.230;2023-06-26T01:52:07;4.82;;;4.32;;
11496;SDS011;5805;51.542;7.230;2023-06-26T01:54:47;5.63;;;4.47;;
11496;SDS011;5805;51.542;7.230;2023-06-26T01:57:18;5.25;;;4.72;;
11496;SDS011;5805;51.542;7.230;2023-06-26T01:59:46;4.65;;;4.25;;
11496;SDS011;5805;51.542;7.230;2023-06-26T02:02:13;7.30;;;4.93;;
11496;SDS011;5805;51.542;7.230;2023-06-26T02:04:39;4.35;;;3.95;;
11496;SDS011;5805;51.542;7.230;2023-06-26T02:07:05;4.90;;;4.38;;
11496;SDS011;5805;51.542;7.230;2023-06-26T02:09:31;5.45;;;4.95;;
11496;SDS011;5805;51.542;7.230;2023-06-26T02:11:57;5.40;;;4.25;;
11496;SDS011;5805;51.542;7.230;2023-06-26T02:14:22;6.35;;;4.25;;
11496;SDS011;5805;51.542;7.230;2023-06-26T02:16:49;5.43;;;4.88;;
11496;SDS011;5805;51.542;7.230;2023-06-26T02:19:15;5.43;;;4.57;;
11496;SDS011;5805;51.542;7.230;2023-06-26T02:21:41;4.60;;;4.20;;
11496;SDS011;5805;51.542;7.230;2023-06-26T02:24:07;5.45;;;4.95;;
11496;SDS011;5805;51.542;7.230;2023-06-26T02:26:32;6.00;;;4.60;;
11496;SDS011;5805;51.542;7.230;2023-06-26T02:28:58;4.97;;;4.47;;
11496;SDS011;5805;51.542;7.230;2023-06-26T02:31:23;4.80;;;4.40;;
11496;SDS011;5805;51.542;7.230;2023-06-26T02:33:50;4.60;;;4.20;;
11496;SDS011;5805;51.542;7.230;2023-06-26T02:36:16;6.50;;;4.82;;
11496;SDS011;5805;51.542;7.230;2023-06-26T02:38:42;4.70;;;4.30;;
11496;SDS011;5805;51.542;7.230;2023-06-26T02:41:08;6.03;;;5.13;;
11496;SDS011;5805;51.542;7.230;2023-06-26T02:43:33;5.30;;;4.80;;
11496;SDS011;5805;51.542;7.230;2023-06-26T02:45:59;5.35;;;4.85;;
11496;SDS011;5805;51.542;7.230;2023-06-26T02:48:24;7.88;;;4.90;;
11496;SDS011;5805;51.542;7.230;2023-06-26T02:50:51;4.53;;;4.00;;
11496;SDS011;5805;51.542;7.230;2023-06-26T02:53:17;4.50;;;3.97;;
11496;SDS011;5805;51.542;7.230;2023-06-26T02:55:43;5.03;;;4.53;;
11496;SDS011;5805;51.542;7.230;2023-06-26T02:58:08;5.35;;;4.57;;
11496;SDS011;5805;51.542;7.230;2023-06-26T03:00:34;5.28;;;4.53;;
11496;SDS011;5805;51.542;7.230;2023-06-26T03:03:00;5.65;;;4.53;;
11496;SDS011;5805;51.542;7.230;2023-06-26T03:05:25;5.55;;;5.05;;
11496;SDS011;5805;51.542;7.230;2023-06-26T03:07:52;6.90;;;5.03;;
11496;SDS011;5805;51.542;7.230;2023-06-26T03:10:18;5.25;;;4.70;;
11496;SDS011;5805;51.542;7.230;2023-06-26T03:12:44;5.82;;;4.97;;
11496;SDS011;5805;51.542;7.230;2023-06-26T03:15:09;4.97;;;4.43;;
11496;SDS011;5805;51.542;7.230;2023-06-26T03:17:35;5.25;;;4.75;;
11496;SDS011;5805;51.542;7.230;2023-06-26T03:20:01;6.10;;;5.03;;
11496;SDS011;5805;51.542;7.230;2023-06-26T03:22:26;5.50;;;4.80;;
11496;SDS011;5805;51.542;7.230;2023-06-26T03:24:53;5.53;;;5.03;;
11496;SDS011;5805;51.542;7.230;2023-06-26T03:27:19;5.68;;;4.72;;
11496;SDS011;5805;51.542;7.230;2023-06-26T03:29:45;5.47;;;4.97;;
11496;SDS011;5805;51.542;7.230;2023-06-26T03:32:11;5.38;;;4.85;;
11496;SDS011;5805;51.542;7.230;2023-06-26T03:34:37;5.88;;;5.25;;
11496;SDS011;5805;51.542;7.230;2023-06-26T03:37:02;5.82;;;4.55;;
11496;SDS011;5805;51.542;7.230;2023-06-26T03:39:28;5.13;;;4.63;;
11496;SDS011;5805;51.542;7.230;2023-06-26T03:41:55;5.03;;;4.53;;
11496;SDS011;5805;51.542;7.230;2023-06-26T03:44:22;5.57;;;4.72;;
11496;SDS011;5805;51.542;7.230;2023-06-26T03:46:47;5.60;;;5.10;;
11496;SDS011;5805;51.542;7.230;2023-06-26T03:49:13;5.35;;;4.80;;
11496;SDS011;5805;51.542;7.230;2023-06-26T03:51:39;5.53;;;5.03;;
11496;SDS011;5805;51.542;7.230;2023-06-26T03:54:04;5.25;;;4.50;;
11496;SDS011;5805;51.542;7.230;2023-06-26T03:56:30;8.55;;;4.88;;
11496;SDS011;5805;51.542;7.230;2023-06-26T03:58:57;5.53;;;4.88;;
11496;SDS011;5805;51.542;7.230;2023-06-26T04:01:23;6.00;;;5.40;;
11496;SDS011;5805;51.542;7.230;2023-06-26T04:03:48;8.25;;;5.75;;
11496;SDS011;5805;51.542;7.230;2023-06-26T04:06:14;6.78;;;5.10;;
11496;SDS011;5805;51.542;7.230;2023-06-26T04:08:40;5.93;;;4.95;;
11496;SDS011;5805;51.542;7.230;2023-06-26T04:11:05;7.40;;;5.07;;
11496;SDS011;5805;51.542;7.230;2023-06-26T04:13:31;5.40;;;4.90;;
11496;SDS011;5805;51.542;7.230;2023-06-26T04:15:58;6.45;;;5.60;;
11496;SDS011;5805;51.542;7.230;2023-06-26T04:18:24;5.50;;;4.55;;
11496;SDS011;5805;51.542;7.230;2023-06-26T04:21:06;5.80;;;5.20;;
11496;SDS011;5805;51.542;7.230;2023-06-26T04:23:33;6.22;;;5.47;;
11496;SDS011;5805;51.542;7.230;2023-06-26T04:25:59;5.72;;;5.13;;
11496;SDS011;5805;51.542;7.230;2023-06-26T04:28:25;6.82;;;5.68;;
11496;SDS011;5805;51.542;7.230;2023-06-26T04:30:51;9.18;;;5.88;;
11496;SDS011;5805;51.542;7.230;2023-06-26T04:33:18;5.95;;;5.35;;
11496;SDS011;5805;51.542;7.230;2023-06-26T04:35:44;8.45;;;5.10;;
11496;SDS011;5805;51.542;7.230;2023-06-26T04:38:09;7.43;;;5.18;;
11496;SDS011;5805;51.542;7.230;2023-06-26T04:40:35;9.75;;;5.93;;
11496;SDS011;5805;51.542;7.230;2023-06-26T04:43:01;9.23;;;4.97;;
11496;SDS011;5805;51.542;7.230;2023-06-26T04:45:29;7.78;;;5.38;;
11496;SDS011;5805;51.542;7.230;2023-06-26T04:47:55;6.82;;;5.53;;
11496;SDS011;5805;51.542;7.230;2023-06-26T04:50:22;7.07;;;5.15;;
11496;SDS011;5805;51.542;7.230;2023-06-26T04:52:47;7.78;;;5.20;;
11496;SDS011;5805;51.542;7.230;2023-06-26T04:55:13;7.55;;;5.63;;
11496;SDS011;5805;51.542;7.230;2023-06-26T04:57:39;7.75;;;5.00;;
11496;SDS011;5805;51.542;7.230;2023-06-26T05:00:05;6.97;;;5.07;;
11496;SDS011;5805;51.542;7.230;2023-06-26T05:02:31;6.80;;;5.47;;
11496;SDS011;5805;51.542;7.230;2023-06-26T05:04:57;8.85;;;5.53;;
11496;SDS011;5805;51.542;7.230;2023-06-26T05:07:24;9.23;;;5.53;;
11496;SDS011;5805;51.542;7.230;2023-06-26T05:09:50;6.03;;;5.30;;
11496;SDS011;5805;51.542;7.230;2023-06-26T05:12:15;9.20;;;5.22;;
11496;SDS011;5805;51.542;7.230;2023-06-26T05:14:41;6.82;;;5.18;;
11496;SDS011;5805;51.542;7.230;2023-06-26T05:17:07;9.88;;;5.70;;
11496;SDS011;5805;51.542;7.230;2023-06-26T05:19:32;9.50;;;5.60;;
11496;SDS011;5805;51.542;7.230;2023-06-26T05:21:58;8.20;;;5.40;;
11496;SDS011;5805;51.542;7.230;2023-06-26T05:24:27;6.18;;;5.00;;
11496;SDS011;5805;51.542;7.230;2023-06-26T05:26:53;6.88;;;5.60;;
11496;SDS011;5805;51.542;7.230;2023-06-26T05:29:20;8.27;;;5.50;;
11496;SDS011;5805;51.542;7.230;2023-06-26T05:31:46;5.63;;;5.10;;
11496;SDS011;5805;51.542;7.230;2023-06-26T05:34:14;8.63;;;5.55;;
11496;SDS011;5805;51.542;7.230;2023-06-26T05:36:42;5.75;;;4.57;;
11496;SDS011;5805;51.542;7.230;2023-06-26T05:39:08;6.40;;;4.88;;
11496;SDS011;5805;51.542;7.230;2023-06-26T05:41:35;6.35;;;4.75;;
11496;SDS011;5805;51.542;7.230;2023-06-26T05:44:01;7.57;;;5.03;;
11496;SDS011;5805;51.542;7.230;2023-06-26T05:46:27;9.50;;;4.85;;
11496;SDS011;5805;51.542;7.230;2023-06-26T05:48:53;5.10;;;4.50;;
11496;SDS011;5805;51.542;7.230;2023-06-26T05:51:18;9.88;;;4.70;;
11496;SDS011;5805;51.542;7.230;2023-06-26T05:53:45;7.28;;;4.80;;
11496;SDS011;5805;51.542;7.230;2023-06-26T05:56:11;7.88;;;4.65;;
11496;SDS011;5805;51.542;7.230;2023-06-26T05:58:39;10.38;;;4.45;;
11496;SDS011;5805;51.542;7.230;2023-06-26T06:01:07;6.22;;;4.68;;
11496;SDS011;5805;51.542;7.230;2023-06-26T06:03:33;6.15;;;5.03;;
11496;SDS011;5805;51.542;7.230;2023-06-26T06:05:59;6.60;;;5.20;;
11496;SDS011;5805;51.542;7.230;2023-06-26T06:08:24;8.18;;;4.97;;
11496;SDS011;5805;51.542;7.230;2023-06-26T06:10:50;7.70;;;4.97;;
11496;SDS011;5805;51.542;7.230;2023-06-26T06:13:16;7.43;;;5.13;;
11496;SDS011;5805;51.542;7.230;2023-06-26T06:15:43;9.95;;;5.20;;
11496;SDS011;5805;51.542;7.230;2023-06-26T06:18:08;9.23;;;5.35;;
11496;SDS011;5805;51.542;7.230;2023-06-26T06:20:34;10.30;;;4.70;;
11496;SDS011;5805;51.542;7.230;2023-06-26T06:23:00;8.13;;;4.78;;
11496;SDS011;5805;51.542;7.230;2023-06-26T06:25:26;6.57;;;4.65;;
11496;SDS011;5805;51.542;7.230;2023-06-26T06:27:52;8.70;;;5.07;;
11496;SDS011;5805;51.542;7.230;2023-06-26T06:30:17;9.98;;;5.45;;
11496;SDS011;5805;51.542;7.230;2023-06-26T06:32:44;9.13;;;5.15;;
11496;SDS011;5805;51.542;7.230;2023-06-26T06:35:10;7.57;;;4.50;;
11496;SDS011;5805;51.542;7.230;2023-06-26T06:37:36;14.30;;;5.25;;
11496;SDS011;5805;51.542;7.230;2023-06-26T06:40:02;7.68;;;5.20;;
11496;SDS011;5805;51.542;7.230;2023-06-26T06:42:28;10.30;;;5.15;;
11496;SDS011;5805;51.542;7.230;2023-06-26T06:44:54;7.35;;;4.80;;
11496;SDS011;5805;51.542;7.230;2023-06-26T06:47:20;7.72;;;4.93;;
11496;SDS011;5805;51.542;7.230;2023-06-26T06:49:47;8.15;;;5.15;;
11496;SDS011;5805;51.542;7.230;2023-06-26T06:52:12;10.35;;;5.40;;
11496;SDS011;5805;51.542;7.230;2023-06-26T06:54:50;10.75;;;5.50;;
11496;SDS011;5805;51.542;7.230;2023-06-26T06:57:17;12.27;;;5.20;;
11496;SDS011;5805;51.542;7.230;2023-06-26T06:59:43;8.95;;;4.93;;
11496;SDS011;5805;51.542;7.230;2023-06-26T07:02:08;10.18;;;5.55;;
11496;SDS011;5805;51.542;7.230;2023-06-26T07:04:34;9.80;;;4.90;;
11496;SDS011;5805;51.542;7.230;2023-06-26T07:07:01;12.07;;;5.18;;
11496;SDS011;5805;51.542;7.230;2023-06-26T07:09:27;12.70;;;5.43;;
11496;SDS011;5805;51.542;7.230;2023-06-26T07:11:53;10.48;;;4.93;;
11496;SDS011;5805;51.542;7.230;2023-06-26T07:14:18;11.73;;;5.15;;
11496;SDS011;5805;51.542;7.230;2023-06-26T07:16:44;12.55;;;5.55;;
11496;SDS011;5805;51.542;7.230;2023-06-26T07:19:10;13.48;;;5.82;;
11496;SDS011;5805;51.542;7.230;2023-06-26T07:21:35;12.13;;;5.95;;
11496;SDS011;5805;51.542;7.230;2023-06-26T07:24:02;11.95;;;5.88;;
11496;SDS011;5805;51.542;7.230;2023-06-26T07:26:28;9.70;;;5.00;;
11496;SDS011;5805;51.542;7.230;2023-06-26T07:28:54;12.25;;;5.63;;
11496;SDS011;5805;51.542;7.230;2023-06-26T07:31:19;9.07;;;5.30;;
11496;SDS011;5805;51.542;7.230;2023-06-26T07:33:45;10.48;;;5.35;;
11496;SDS011;5805;51.542;7.230;2023-06-26T07:36:11;13.15;;;6.10;;
11496;SDS011;5805;51.542;7.230;2023-06-26T07:38:36;9.48;;;5.28;;
11496;SDS011;5805;51.542;7.230;2023-06-26T07:41:03;9.27;;;5.50;;
11496;SDS011;5805;51.542;7.230;2023-06-26T07:43:29;11.73;;;6.07;;
11496;SDS011;5805;51.542;7.230;2023-06-26T07:45:55;11.82;;;6.53;;
11496;SDS011;5805;51.542;7.230;2023-06-26T07:48:20;12.50;;;6.57;;
11496;SDS011;5805;51.542;7.230;2023-06-26T07:50:46;12.65;;;6.40;;
11496;SDS011;5805;51.542;7.230;2023-06-26T07:53:12;11.05;;;6.32;;
11496;SDS011;5805;51.542;7.230;2023-06-26T07:55:38;12.95;;;6.95;;
11496;SDS011;5805;51.542;7.230;2023-06-26T07:58:05;11.07;;;6.10;;
11496;SDS011;5805;51.542;7.230;2023-06-26T08:00:32;15.85;;;6.60;;
11496;SDS011;5805;51.542;7.230;2023-06-26T08:02:57;12.38;;;6.20;;
11496;SDS011;5805;51.542;7.230;2023-06-26T08:05:23;11.85;;;6.60;;
11496;SDS011;5805;51.542;7.230;2023-06-26T08:07:49;9.80;;;5.25;;
11496;SDS011;5805;51.542;7.230;2023-06-26T08:10:14;11.90;;;6.57;;
11496;SDS011;5805;51.542;7.230;2023-06-26T08:12:40;17.38;;;6.85;;
11496;SDS011;5805;51.542;7.230;2023-06-26T08:15:08;12.75;;;5.15;;
11496;SDS011;5805;51.542;7.230;2023-06-26T08:17:34;11.82;;;5.68;;
11496;SDS011;5805;51.542;7.230;2023-06-26T08:20:00;11.65;;;5.10;;
11496;SDS011;5805;51.542;7.230;2023-06-26T08:22:26;10.52;;;5.50;;
11496;SDS011;5805;51.542;7.230;2023-06-26T08:24:51;9.43;;;5.38;;
11496;SDS011;5805;51.542;7.230;2023-06-26T08:27:17;10.80;;;5.32;;
11496;SDS011;5805;51.542;7.230;2023-06-26T08:29:43;10.35;;;5.15;;
11496;SDS011;5805;51.542;7.230;2023-06-26T08:32:10;9.30;;;5.45;;
11496;SDS011;5805;51.542;7.230;2023-06-26T08:34:35;10.18;;;4.22;;
11496;SDS011;5805;51.542;7.230;2023-06-26T08:37:01;9.95;;;4.70;;
11496;SDS011;5805;51.542;7.230;2023-06-26T08:39:27;10.02;;;4.78;;
11496;SDS011;5805;51.542;7.230;2023-06-26T08:41:52;9.13;;;4.90;;
11496;SDS011;5805;51.542;7.230;2023-06-26T08:44:18;10.90;;;6.35;;
11496;SDS011;5805;51.542;7.230;2023-06-26T08:46:45;11.07;;;5.80;;
11496;SDS011;5805;51.542;7.230;2023-06-26T08:49:13;13.18;;;5.88;;
11496;SDS011;5805;51.542;7.230;2023-06-26T08:51:43;8.40;;;4.75;;
11496;SDS011;5805;51.542;7.230;2023-06-26T08:54:15;9.18;;;5.13;;
11496;SDS011;5805;51.542;7.230;2023-06-26T08:56:45;8.38;;;4.63;;
11496;SDS011;5805;51.542;7.230;2023-06-26T08:59:14;13.15;;;4.90;;
11496;SDS011;5805;51.542;7.230;2023-06-26T09:01:40;9.90;;;4.22;;
11496;SDS011;5805;51.542;7.230;2023-06-26T09:04:06;8.35;;;4.05;;
11496;SDS011;5805;51.542;7.230;2023-06-26T09:06:33;7.72;;;4.30;;
11496;SDS011;5805;51.542;7.230;2023-06-26T09:08:59;9.52;;;4.65;;
11496;SDS011;5805;51.542;7.230;2023-06-26T09:11:24;9.57;;;4.30;;
11496;SDS011;5805;51.542;7.230;2023-06-26T09:13:50;9.63;;;3.90;;
11496;SDS011;5805;51.542;7.230;2023-06-26T09:16:17;7.65;;;4.22;;
11496;SDS011;5805;51.542;7.230;2023-06-26T09:18:44;8.93;;;4.13;;
11496;SDS011;5805;51.542;7.230;2023-06-26T09:21:10;10.07;;;4.68;;
11496;SDS011;5805;51.542;7.230;2023-06-26T09:23:39;12.43;;;4.05;;
11496;SDS011;5805;51.542;7.230;2023-06-26T09:26:05;9.20;;;4.28;;
11496;SDS011;5805;51.542;7.230;2023-06-26T09:28:31;10.60;;;4.35;;
11496;SDS011;5805;51.542;7.230;2023-06-26T09:31:00;10.48;;;4.55;;
11496;SDS011;5805;51.542;7.230;2023-06-26T09:33:26;8.07;;;3.85;;
11496;SDS011;5805;51.542;7.230;2023-06-26T09:35:52;8.13;;;4.63;;
11496;SDS011;5805;51.542;7.230;2023-06-26T09:38:17;7.10;;;3.53;;
11496;SDS011;5805;51.542;7.230;2023-06-26T09:40:45;6.68;;;3.78;;
11496;SDS011;5805;51.542;7.230;2023-06-26T09:43:12;7.20;;;3.53;;
11496;SDS011;5805;51.542;7.230;2023-06-26T09:45:39;6.95;;;3.42;;
11496;SDS011;5805;51.542;7.230;2023-06-26T09:48:05;8.95;;;3.60;;
11496;SDS011;5805;51.542;7.230;2023-06-26T09:50:32;8.10;;;3.50;;
11496;SDS011;5805;51.542;7.230;2023-06-26T09:52:58;7.05;;;3.35;;
11496;SDS011;5805;51.542;7.230;2023-06-26T09:55:24;5.55;;;3.50;;
11496;SDS011;5805;51.542;7.230;2023-06-26T09:57:52;8.25;;;3.80;;
11496;SDS011;5805;51.542;7.230;2023-06-26T10:00:23;7.45;;;3.58;;
11496;SDS011;5805;51.542;7.230;2023-06-26T10:02:49;6.95;;;3.30;;
11496;SDS011;5805;51.542;7.230;2023-06-26T10:05:15;6.95;;;3.30;;
11496;SDS011;5805;51.542;7.230;2023-06-26T10:07:41;9.45;;;3.33;;
11496;SDS011;5805;51.542;7.230;2023-06-26T10:10:07;8.63;;;3.65;;
11496;SDS011;5805;51.542;7.230;2023-06-26T10:12:35;5.50;;;3.05;;
11496;SDS011;5805;51.542;7.230;2023-06-26T10:15:02;6.03;;;3.00;;
11496;SDS011;5805;51.542;7.230;2023-06-26T10:17:28;7.35;;;3.25;;
11496;SDS011;5805;51.542;7.230;2023-06-26T10:19:58;6.93;;;2.85;;
11496;SDS011;5805;51.542;7.230;2023-06-26T10:22:29;6.50;;;3.03;;
11496;SDS011;5805;51.542;7.230;2023-06-26T10:24:58;5.15;;;2.85;;
11496;SDS011;5805;51.542;7.230;2023-06-26T10:27:25;6.97;;;3.05;;
11496;SDS011;5805;51.542;7.230;2023-06-26T10:29:55;6.05;;;2.80;;
11496;SDS011;5805;51.542;7.230;2023-06-26T10:32:25;5.10;;;2.67;;
11496;SDS011;5805;51.542;7.230;2023-06-26T10:34:52;6.85;;;2.72;;
11496;SDS011;5805;51.542;7.230;2023-06-26T10:37:18;6.97;;;2.67;;
11496;SDS011;5805;51.542;7.230;2023-06-26T10:39:47;7.00;;;3.03;;
11496;SDS011;5805;51.542;7.230;2023-06-26T10:42:13;4.40;;;2.60;;
11496;SDS011;5805;51.542;7.230;2023-06-26T10:44:42;6.10;;;2.88;;
11496;SDS011;5805;51.542;7.230;2023-06-26T10:47:09;7.70;;;3.35;;
11496;SDS011;5805;51.542;7.230;2023-06-26T10:49:37;5.68;;;3.03;;
11496;SDS011;5805;51.542;7.230;2023-06-26T10:52:03;4.97;;;2.90;;
11496;SDS011;5805;51.542;7.230;2023-06-26T10:54:30;5.60;;;2.88;;
11496;SDS011;5805;51.542;7.230;2023-06-26T10:56:56;5.70;;;2.85;;
11496;SDS011;5805;51.542;7.230;2023-06-26T10:59:23;7.65;;;2.92;;
11496;SDS011;5805;51.542;7.230;2023-06-26T11:01:54;5.45;;;2.90;;
11496;SDS011;5805;51.542;7.230;2023-06-26T11:04:35;5.00;;;2.70;;
11496;SDS011;5805;51.542;7.230;2023-06-26T11:07:16;6.18;;;2.53;;
11496;SDS011;5805;51.542;7.230;2023-06-26T11:09:53;6.55;;;2.97;;
11496;SDS011;5805;51.542;7.230;2023-06-26T11:12:33;6.80;;;2.47;;
11496;SDS011;5805;51.542;7.230;2023-06-26T11:15:00;5.25;;;2.70;;
11496;SDS011;5805;51.542;7.230;2023-06-26T11:17:25;7.13;;;2.92;;
11496;SDS011;5805;51.542;7.230;2023-06-26T11:19:53;6.55;;;2.95;;
11496;SDS011;5805;51.542;7.230;2023-06-26T11:22:19;6.97;;;2.83;;
11496;SDS011;5805;51.542;7.230;2023-06-26T11:24:46;7.13;;;2.78;;
11496;SDS011;5805;51.542;7.230;2023-06-26T11:27:13;4.93;;;2.63;;
11496;SDS011;5805;51.542;7.230;2023-06-26T11:29:41;6.00;;;2.45;;
11496;SDS011;5805;51.542;7.230;2023-06-26T11:32:12;7.50;;;2.35;;
11496;SDS011;5805;51.542;7.230;2023-06-26T11:34:38;4.10;;;2.40;;
11496;SDS011;5805;51.542;7.230;2023-06-26T11:37:05;7.88;;;3.15;;
11496;SDS011;5805;51.542;7.230;2023-06-26T11:39:31;4.75;;;2.28;;
11496;SDS011;5805;51.542;7.230;2023-06-26T11:41:57;3.95;;;2.10;;
11496;SDS011;5805;51.542;7.230;2023-06-26T11:44:24;3.90;;;2.30;;
11496;SDS011;5805;51.542;7.230;2023-06-26T11:46:55;4.50;;;2.22;;
11496;SDS011;5805;51.542;7.230;2023-06-26T11:49:22;4.38;;;2.20;;
11496;SDS011;5805;51.542;7.230;2023-06-26T11:51:47;6.43;;;1.95;;
11496;SDS011;5805;51.542;7.230;2023-06-26T11:54:15;3.97;;;1.70;;
11496;SDS011;5805;51.542;7.230;2023-06-26T11:56:51;4.35;;;1.77;;
11496;SDS011;5805;51.542;7.230;2023-06-26T11:59:17;8.18;;;1.90;;
11496;SDS011;5805;51.542;7.230;2023-06-26T12:01:43;4.50;;;1.77;;
11496;SDS011;5805;51.542;7.230;2023-06-26T12:04:10;3.45;;;1.80;;
11496;SDS011;5805;51.542;7.230;2023-06-26T12:06:37;4.40;;;1.83;;
11496;SDS011;5805;51.542;7.230;2023-06-26T12:09:05;2.75;;;1.70;;
11496;SDS011;5805;51.542;7.230;2023-06-26T12:11:33;2.40;;;1.65;;
11496;SDS011;5805;51.542;7.230;2023-06-26T12:14:00;4.00;;;1.52;;
11496;SDS011;5805;51.542;7.230;2023-06-26T12:16:26;8.52;;;1.70;;
11496;SDS011;5805;51.542;7.230;2023-06-26T12:18:57;6.00;;;1.67;;
11496;SDS011;5805;51.542;7.230;2023-06-26T12:24:13;2.72;;;1.55;;
11496;SDS011;5805;51.542;7.230;2023-06-26T12:26:42;4.13;;;1.73;;
11496;SDS011;5805;51.542;7.230;2023-06-26T12:29:09;10.55;;;1.30;;
11496;SDS011;5805;51.542;7.230;2023-06-26T12:31:39;6.82;;;1.67;;
11496;SDS011;5805;51.542;7.230;2023-06-26T12:34:08;6.30;;;1.60;;
11496;SDS011;5805;51.542;7.230;2023-06-26T12:36:39;2.85;;;1.70;;
11496;SDS011;5805;51.542;7.230;2023-06-26T12:39:04;3.83;;;1.55;;
11496;SDS011;5805;51.542;7.230;2023-06-26T12:41:30;3.38;;;1.40;;
11496;SDS011;5805;51.542;7.230;2023-06-26T12:43:57;4.72;;;1.38;;
11496;SDS011;5805;51.542;7.230;2023-06-26T12:46:32;4.00;;;1.35;;
11496;SDS011;5805;51.542;7.230;2023-06-26T12:48:58;4.38;;;1.30;;
11496;SDS011;5805;51.542;7.230;2023-06-26T12:51:25;4.75;;;1.42;;
11496;SDS011;5805;51.542;7.230;2023-06-26T12:53:50;3.58;;;1.60;;
11496;SDS011;5805;51.542;7.230;2023-06-26T12:56:16;7.95;;;1.50;;
11496;SDS011;5805;51.542;7.230;2023-06-26T12:58:42;7.32;;;1.60;;
11496;SDS011;5805;51.542;7.230;2023-06-26T13:01:09;2.03;;;1.40;;
11496;SDS011;5805;51.542;7.230;2023-06-26T13:03:35;2.95;;;1.30;;
11496;SDS011;5805;51.542;7.230;2023-06-26T13:06:00;4.20;;;1.20;;
11496;SDS011;5805;51.542;7.230;2023-06-26T13:08:26;3.53;;;1.27;;
11496;SDS011;5805;51.542;7.230;2023-06-26T13:10:52;6.43;;;1.45;;
11496;SDS011;5805;51.542;7.230;2023-06-26T13:13:17;4.32;;;1.40;;
11496;SDS011;5805;51.542;7.230;2023-06-26T13:15:43;2.67;;;1.40;;
11496;SDS011;5805;51.542;7.230;2023-06-26T13:18:10;6.00;;;1.23;;
11496;SDS011;5805;51.542;7.230;2023-06-26T13:20:36;2.22;;;1.13;;
11496;SDS011;5805;51.542;7.230;2023-06-26T13:23:02;3.78;;;1.77;;
11496;SDS011;5805;51.542;7.230;2023-06-26T13:25:29;1.80;;;1.02;;
11496;SDS011;5805;51.542;7.230;2023-06-26T13:27:55;2.22;;;1.25;;
11496;SDS011;5805;51.542;7.230;2023-06-26T13:30:21;3.55;;;1.58;;
11496;SDS011;5805;51.542;7.230;2023-06-26T13:32:47;2.33;;;1.10;;
11496;SDS011;5805;51.542;7.230;2023-06-26T13:35:14;4.10;;;1.40;;
11496;SDS011;5805;51.542;7.230;2023-06-26T13:37:40;2.47;;;1.10;;
11496;SDS011;5805;51.542;7.230;2023-06-26T13:40:06;4.40;;;1.30;;
11496;SDS011;5805;51.542;7.230;2023-06-26T13:42:32;1.20;;;1.10;;
11496;SDS011;5805;51.542;7.230;2023-06-26T13:44:59;6.65;;;1.58;;
11496;SDS011;5805;51.542;7.230;2023-06-26T13:47:25;4.93;;;1.20;;
11496;SDS011;5805;51.542;7.230;2023-06-26T13:49:52;3.00;;;1.27;;
11496;SDS011;5805;51.542;7.230;2023-06-26T13:52:19;4.80;;;1.15;;
11496;SDS011;5805;51.542;7.230;2023-06-26T13:54:44;2.28;;;1.20;;
11496;SDS011;5805;51.542;7.230;2023-06-26T13:57:10;2.83;;;1.50;;
11496;SDS011;5805;51.542;7.230;2023-06-26T13:59:37;3.13;;;1.25;;
11496;SDS011;5805;51.542;7.230;2023-06-26T14:02:04;2.83;;;1.17;;
11496;SDS011;5805;51.542;7.230;2023-06-26T14:04:29;2.20;;;1.20;;
11496;SDS011;5805;51.542;7.230;2023-06-26T14:06:55;3.40;;;1.13;;
11496;SDS011;5805;51.542;7.230;2023-06-26T14:09:22;3.42;;;1.60;;
11496;SDS011;5805;51.542;7.230;2023-06-26T14:11:48;4.28;;;1.20;;
11496;SDS011;5805;51.542;7.230;2023-06-26T14:14:14;5.68;;;1.40;;
11496;SDS011;5805;51.542;7.230;2023-06-26T14:16:39;6.00;;;1.20;;
11496;SDS011;5805;51.542;7.230;2023-06-26T14:19:05;4.60;;;1.30;;
11496;SDS011;5805;51.542;7.230;2023-06-26T14:21:31;3.80;;;1.50;;
11496;SDS011;5805;51.542;7.230;2023-06-26T14:23:57;2.72;;;1.30;;
11496;SDS011;5805;51.542;7.230;2023-06-26T14:26:24;25.63;;;1.50;;
11496;SDS011;5805;51.542;7.230;2023-06-26T14:28:49;2.90;;;1.00;;
11496;SDS011;5805;51.542;7.230;2023-06-26T14:31:15;3.72;;;1.70;;
11496;SDS011;5805;51.542;7.230;2023-06-26T14:33:41;3.40;;;1.10;;
11496;SDS011;5805;51.542;7.230;2023-06-26T14:36:06;1.98;;;1.40;;
11496;SDS011;5805;51.542;7.230;2023-06-26T14:38:32;2.75;;;1.17;;
11496;SDS011;5805;51.542;7.230;2023-06-26T14:40:58;3.75;;;1.50;;
11496;SDS011;5805;51.542;7.230;2023-06-26T14:43:25;3.70;;;1.30;;
11496;SDS011;5805;51.542;7.230;2023-06-26T14:45:51;3.58;;;1.08;;
11496;SDS011;5805;51.542;7.230;2023-06-26T14:48:16;7.68;;;1.50;;
11496;SDS011;5805;51.542;7.230;2023-06-26T14:50:42;3.53;;;1.42;;
11496;SDS011;5805;51.542;7.230;2023-06-26T14:53:08;4.55;;;1.35;;
11496;SDS011;5805;51.542;7.230;2023-06-26T14:55:34;3.33;;;1.40;;
11496;SDS011;5805;51.542;7.230;2023-06-26T14:57:59;5.18;;;1.90;;
11496;SDS011;5805;51.542;7.230;2023-06-26T15:00:26;4.25;;;1.48;;